• Join FlightAware (Why Join?)
  • Login
  • US Flag 
12:16AM EDT


 

Airport Tracker/Info


-or-


 

Live Flight TrackerFlight Track Log ✈ N244A ✈ 03-Jul-2013 ✈ KMMU - KAPF

Flight Track Log - Related Links

Times and Time Zones

All times are in EDT time to prevent confusion due to time zone crossing. See the N244A flight status page for this flight to view local times or setup timezone preferences in your user account.

Time Position Orientation Groundspeed Altitude Reporting Facility
EDT Latitude Longitude Course Direction KTS MPH feet Rate Location/Type
12:37PM 40.7500 -74.4333 164° South 172 198 2,200  Level New York TRACON
12:39PM 40.6456 -74.3950 164° South 220 253 8,000 2,940 Climbing New York Center
12:40PM 40.6225 -74.4703 248° West 190 219 10,900 2,640 Climbing New York Center
12:41PM 40.5967 -74.5619 250° West 248 285 13,300 2,820 Climbing New York Center
12:42PM 40.5258 -74.6261 215° Southwest 269 310 16,600 2,520 Climbing New York Center
12:43PM 40.4672 -74.6911 220° Southwest 285 328 18,400 2,220 Climbing New York Center
12:44PM 40.4150 -74.7564 224° Southwest 290 334 21,100 2,220 Climbing New York Center
12:46PM 40.2803 -74.9117 221° Southwest 278 320 26,000 1,800 Climbing Washington Center
12:47PM 40.2119 -74.9694 213° Southwest 286 329 27,300 1,560 Climbing Washington Center
12:48PM 40.1414 -75.0353 216° Southwest 305 351 29,100 1,500 Climbing Washington Center
12:49PM 40.0647 -75.1061 215° Southwest 310 357 30,400 1,020 Climbing Washington Center
12:50PM 40.0003 -75.1664 216° Southwest 310 357 31,200 960 Climbing Washington Center
12:51PM 39.9214 -75.2397 215° Southwest 334 384 32,400 1,260 Climbing Washington Center
12:52PM 39.8425 -75.3106 215° Southwest 339 390 33,700 960 Climbing Washington Center
12:53PM 39.7614 -75.3783 213° Southwest 346 398 34,400 840 Climbing Washington Center
12:54PM 39.6844 -75.4514 216° Southwest 351 404 35,500 780 Climbing Washington Center
12:55PM 39.6053 -75.5214 214° Southwest 351 404 36,100 780 Climbing Washington Center
12:56PM 39.5239 -75.5917 214° Southwest 351 404 37,100 960 Climbing Washington Center
12:57PM 39.4447 -75.6614 214° Southwest 351 404 38,100 660 Climbing Washington Center
12:58PM 39.3656 -75.7311 214° Southwest 351 404 38,500 240 Climbing Washington Center
12:59PM 39.2861 -75.8033 215° Southwest 351 404 38,700 360 Climbing Washington Center
01:00PM 39.2047 -75.8756 215° Southwest 356 410 39,300 600 Climbing Washington Center
01:01PM 39.1211 -75.9475 214° Southwest 356 410 39,900 300 Climbing Washington Center
01:02PM 39.0378 -76.0164 213° Southwest 356 410 40,000  Climbing Washington Center
01:03PM 38.9539 -76.0933 216° Southwest 363 418 40,000  Level Washington Center
01:04PM 38.8681 -76.1675 214° Southwest 369 425 40,000  Level Washington Center
01:05PM 38.7719 -76.2439 212° Southwest 390 449 40,000  Level Washington Center
01:06PM 38.6797 -76.3256 215° Southwest 398 458 40,000  Level Washington Center
01:07PM 38.5875 -76.4017 213° Southwest 406 467 40,000  Level Washington Center
01:08PM 38.4953 -76.4856 215° Southwest 406 467 40,000  Level Washington Center
01:09PM 38.3986 -76.5639 212° Southwest 406 467 40,000  Level Washington Center
01:10PM 38.3000 -76.6528 215° Southwest 411 473 40,000  Level Washington Center
01:11PM 38.2033 -76.7331 213° Southwest 411 473 40,000  Level Washington Center
01:12PM 38.1064 -76.8136 213° Southwest 411 473 40,000  Level Washington Center
01:13PM 38.0222 -76.8886 215° Southwest 417 480 40,000  Level Washington Center
01:14PM 37.9256 -76.9658 212° Southwest 417 480 40,000  Level Washington Center
01:15PM 37.8286 -77.0483 214° Southwest 417 480 40,000  Level Washington Center
01:16PM 37.7336 -77.1306 214° Southwest 417 480 40,000  Level Washington Center
01:17PM 37.6347 -77.2097 212° Southwest 422 486 40,000  Level Washington Center
01:18PM 37.5397 -77.2942 215° Southwest 422 486 40,000  Level Washington Center
01:19PM 37.4406 -77.3758 213° Southwest 422 486 40,000  Level Washington Center
01:20PM 37.3411 -77.4569 213° Southwest 422 486 40,000  Level Washington Center
01:21PM 37.2314 -77.5431 212° Southwest 422 486 40,000  Level Washington Center
01:22PM 37.1339 -77.6264 214° Southwest 422 486 40,000  Level Washington Center
01:23PM 37.0367 -77.7019 212° Southwest 422 486 40,000  Level Washington Center
01:24PM 36.9392 -77.7825 213° Southwest 422 486 40,000  Level Washington Center
01:25PM 36.8378 -77.8628 212° Southwest 422 486 40,000  Level Washington Center
01:26PM 36.7422 -77.9428 214° Southwest 422 486 40,000  Level Washington Center
01:27PM 36.6406 -78.0225 212° Southwest 422 486 40,000  Level Washington Center
01:28PM 36.5450 -78.1022 214° Southwest 422 486 40,000  Level Washington Center
01:29PM 36.4581 -78.1719 213° Southwest 416 479 40,000  Level Washington Center
01:30PM 36.3581 -78.2536 213° Southwest 422 486 40,000  Level Washington Center
01:31PM 36.2603 -78.3328 213° Southwest 422 486 40,000  Level Washington Center
01:32PM 36.1564 -78.4114 211° Southwest 428 493 40,000  Level Washington Center
01:33PM 36.0606 -78.4903 214° Southwest 428 493 40,000  Level Washington Center
01:34PM 35.9606 -78.5714 213° Southwest 428 493 40,000  Level Washington Center
01:35PM 35.8583 -78.6494 212° Southwest 428 493 40,000  Level Washington Center
01:36PM 35.7475 -78.7400 214° Southwest 433 498 40,000  Level Washington Center
01:37PM 35.6472 -78.8203 213° Southwest 438 504 40,000  Level Washington Center
01:38PM 35.5428 -78.9003 212° Southwest 443 510 40,000  Level Washington Center
01:39PM 35.4406 -78.9778 212° Southwest 443 510 40,000  Level Washington Center
01:40PM 35.3403 -79.0522 211° Southwest 443 510 40,000  Level Washington Center
01:41PM 35.2378 -79.1319 212° Southwest 443 510 40,000  Level Washington Center
01:42PM 35.1375 -79.2061 211° Southwest 443 510 40,000  Level Washington Center
01:43PM 35.0372 -79.2828 212° Southwest 443 510 40,000  Level Washington Center
01:45PM 34.8281 -79.4406 212° Southwest 439 505 40,000  Level Jacksonville Center
01:46PM 34.7258 -79.5178 212° Southwest 439 505 40,000  Level Jacksonville Center
01:47PM 34.6258 -79.5975 213° Southwest 439 505 40,000  Level Jacksonville Center
01:48PM 34.5194 -79.6747 211° Southwest 439 505 40,000 -60 Level Jacksonville Center
01:49PM 34.4192 -79.7514 212° Southwest 434 499 39,900 -60 Descending Jacksonville Center
01:50PM 34.3147 -79.8306 212° Southwest 434 499 39,900  Level Jacksonville Center
01:51PM 34.2078 -79.8994 208° Southwest 434 499 40,000  Climbing Jacksonville Center
01:52PM 34.1008 -79.9683 208° Southwest 439 505 39,900 -60 Descending Jacksonville Center
01:53PM 33.9919 -80.0397 209° Southwest 439 505 39,900  Level Jacksonville Center
01:54PM 33.8850 -80.1083 208° Southwest 439 505 40,000  Climbing Jacksonville Center
01:55PM 33.7758 -80.1767 207° Southwest 439 505 40,000 -60 Level Jacksonville Center
01:56PM 33.6689 -80.2447 208° Southwest 439 505 39,900  Descending Jacksonville Center
01:57PM 33.5619 -80.3178 210° Southwest 439 505 40,000  Climbing Jacksonville Center
01:58PM 33.4483 -80.3883 207° Southwest 444 511 39,900  Descending Jacksonville Center
01:59PM 33.3414 -80.4586 209° Southwest 444 511 40,000  Climbing Jacksonville Center
02:00PM 33.2300 -80.5311 209° Southwest 449 517 40,000  Level Jacksonville Center
02:01PM 33.1267 -80.5933 207° Southwest 449 517 40,000  Level Jacksonville Center
02:02PM 33.0175 -80.6631 208° Southwest 449 517 40,000  Level Jacksonville Center
02:03PM 32.9039 -80.7325 207° Southwest 449 517 40,000  Level Jacksonville Center
02:04PM 32.7922 -80.7994 207° Southwest 449 517 40,000 -60 Level Jacksonville Center
02:05PM 32.6806 -80.8686 208° Southwest 449 517 39,900  Descending Jacksonville Center
02:06PM 32.5669 -80.9403 208° Southwest 449 517 40,000  Climbing Jacksonville Center
02:07PM 32.4531 -81.0117 208° Southwest 449 517 39,900  Descending Jacksonville Center
02:08PM 32.3394 -81.0803 207° Southwest 444 511 40,000  Climbing Jacksonville Center
02:09PM 32.2256 -81.1514 208° Southwest 456 525 40,000  Level Jacksonville Center
02:10PM 32.1136 -81.2197 207° Southwest 456 525 40,000 -60 Level Jacksonville Center
02:11PM 32.0125 -81.3097 217° Southwest 456 525 39,900  Descending Jacksonville Center
02:12PM 31.8969 -81.4072 216° Southwest 461 531 40,000  Climbing Jacksonville Center
02:13PM 31.8036 -81.4797 213° Southwest 461 531 40,000  Level Jacksonville Center
02:14PM 31.6728 -81.5378 201° Southwest 459 528 40,000  Level Jacksonville Center
02:15PM 31.5625 -81.5736 195° South 459 528 40,000  Level Jacksonville Center
02:16PM 31.4253 -81.6217 197° South 459 528 40,000 -60 Level Jacksonville Center
02:17PM 31.3256 -81.6789 206° Southwest 454 522 39,900 -60 Descending Jacksonville Center
02:18PM 31.2411 -81.7894 228° Southwest 449 517 39,900  Level Jacksonville Center
02:19PM 31.1667 -81.9069 234° Southwest 444 511 39,900  Level Jacksonville Center
02:20PM 31.0903 -82.0192 232° Southwest 449 517 40,000  Climbing Jacksonville Center
02:21PM 31.0158 -82.1339 233° Southwest 449 517 40,000  Level Jacksonville Center
02:22PM 30.9331 -82.2581 232° Southwest 449 517 40,000  Level Jacksonville Center
02:23PM 30.8564 -82.3697 231° Southwest 449 517 40,000  Level Jacksonville Center
02:24PM 30.7836 -82.4814 233° Southwest 443 510 40,000 -60 Level Jacksonville Center
02:25PM 30.7089 -82.5931 232° Southwest 443 510 39,900 -60 Descending Jacksonville Center
02:26PM 30.6297 -82.7092 232° Southwest 448 516 39,900  Level Jacksonville Center
02:27PM 30.5589 -82.8203 234° Southwest 442 509 40,000  Climbing Jacksonville Center
02:28PM 30.4836 -82.9264 231° Southwest 437 503 40,000 -60 Level Jacksonville Center
02:29PM 30.4064 -83.0394 232° Southwest 442 509 39,900  Descending Jacksonville Center
02:30PM 30.3311 -83.1525 232° Southwest 447 514 40,000  Climbing Jacksonville Center
02:31PM 30.2575 -83.2653 233° Southwest 447 514 39,900 -60 Descending Jacksonville Center
02:32PM 30.1800 -83.3781 232° Southwest 447 514 39,900 -60 Level Jacksonville Center
02:33PM 30.1022 -83.4906 231° Southwest 447 514 39,800 -360 Descending Jacksonville Center
02:34PM 30.0244 -83.6050 232° Southwest 447 514 39,200 -300 Descending Jacksonville Center
02:35PM 29.9425 -83.7122 229° Southwest 452 520 39,200 -180 Level Jacksonville Center
02:36PM 29.8333 -83.7856 210° Southwest 440 506 38,900 -180 Descending Jacksonville Center
02:37PM 29.7058 -83.7989 185° South 437 503 38,900  Level Jacksonville Center
02:38PM 29.5789 -83.7619 166° South 442 509 38,900  Level Jacksonville Center
02:39PM 29.4517 -83.7203 164° South 447 514 38,900  Level Jacksonville Center
02:40PM 29.3247 -83.6808 165° South 458 527 38,900  Level Jacksonville Center
02:41PM 29.1975 -83.6394 164° South 469 540 38,900  Level Jacksonville Center
02:42PM 29.0706 -83.6006 165° South 469 540 38,900  Level Jacksonville Center
02:43PM 28.9536 -83.5664 166° South 479 551 38,900  Level Jacksonville Center
02:44PM 28.8225 -83.5278 166° South 479 551 38,900  Level Jacksonville Center
02:45PM 28.6953 -83.4889 165° South 479 551 38,900 -600 Level Jacksonville Center
02:47PM 28.3894 -83.3964 165° South 483 556 37,000 -1,200 Descending Miami Center
02:48PM 28.2589 -83.3794 173° South 483 556 35,000 -2,100 Descending Miami Center
02:49PM 28.1300 -83.3672 175° South 478 550 32,900 -2,100 Descending Miami Center
02:50PM 28.0050 -83.3672 180° South 468 539 30,800 -2,100 Descending Miami Center
02:51PM 27.8800 -83.3647 179° South 462 532 28,800 -2,100 Descending Miami Center
02:52PM 27.7569 -83.3622 179° South 452 520 26,700 -2,100 Descending Miami Center
02:53PM 27.6342 -83.3600 179° South 452 520 24,600 -2,100 Descending Miami Center
02:54PM 27.5175 -83.3581 179° South 438 504 22,500 -1,800 Descending Miami Center
02:55PM 27.4131 -83.3125 159° South 411 473 21,000 -840 Descending Miami Center
02:56PM 27.3547 -83.2156 124° Southeast 366 421 20,900  Descending Miami Center
02:57PM 27.3006 -83.1217 123° Southeast 357 411 21,000  Climbing Miami Center
02:58PM 27.2419 -83.0250 124° Southeast 362 417 21,000 -600 Level Miami Center
02:59PM 27.1817 -82.9217 123° Southeast 380 437 19,800 -1,200 Descending Miami Center
03:00PM 27.1108 -82.8200 128° Southeast 393 452 18,700 -1,080 Descending Miami Center
03:01PM 27.0178 -82.7500 146° Southeast 393 452 17,700 -1,140 Descending Miami Center
03:02PM 26.9247 -82.6778 145° Southeast 404 465 16,500 -1,380 Descending Miami Center
03:03PM 26.8444 -82.5947 137° Southeast 404 465 15,000 -1,500 Descending Miami Center
03:04PM 26.7744 -82.5192 136° Southeast 370 426 13,600 -1,500 Descending Miami Center
03:05PM 26.7122 -82.4533 137° Southeast 335 386 12,000 -1,920 Descending Miami Center
03:06PM 26.6475 -82.4017 144° Southeast 302 348 9,800 -1,800 Descending Miami Center
03:07PM 26.5758 -82.3656 156° South 257 296 8,500 -1,560 Descending Miami Center
03:08PM 26.5319 -82.3081 130° Southeast 242 278 6,700 -1,680 Descending Miami Center
03:09PM 26.4903 -82.2503 129° Southeast 242 278 5,200 -900 Descending Miami Center
03:10PM 26.4483 -82.1975 132° Southeast 236 272 5,000 -120 Descending Miami Center
03:11PM 26.3981 -82.1489 139° Southeast 237 273 5,000 -120 Level Miami Center
03:12PM 26.3325 -82.1158 156° South 251 289 4,800 -900 Descending Miami Center
03:13PM 26.2667 -82.0850 157° South 257 296 3,300 -1,500 Descending Miami Center
03:15PM 26.1550 -82.0216 138° Southeast  Level FlightAware Approximate
03:22PM 26.1524 -81.7756 66° East  Level Estimated
03:23PM 26.1524 -81.7756 66° East  Level Estimated
03:24PM 26.1524 -81.7756 66° East  Level Estimated
03:25PM 26.1524 -81.7756 66° East  Level Estimated
03:26PM 26.1524 -81.7756 66° East  Level Estimated
03:27PM 26.1524 -81.7756 66° East  Level Estimated
03:28PM 26.1524 -81.7756 66° East  Level Estimated
03:29PM 26.1524 -81.7756 66° East  Level Estimated